sensor_id;sensor_type;location;lat;lon;timestamp;temperature;humidity
13598;DHT22;38563;54.258;12.574;2023-05-10T00:01:09;11.60;99.90
13598;DHT22;38563;54.258;12.574;2023-05-10T00:03:36;11.60;99.90
13598;DHT22;38563;54.258;12.574;2023-05-10T00:06:02;11.50;99.90
13598;DHT22;38563;54.258;12.574;2023-05-10T00:08:30;11.60;99.90
13598;DHT22;38563;54.258;12.574;2023-05-10T00:10:57;11.60;99.90
13598;DHT22;38563;54.258;12.574;2023-05-10T00:13:23;11.60;99.90
13598;DHT22;38563;54.258;12.574;2023-05-10T00:15:50;11.60;99.90
13598;DHT22;38563;54.258;12.574;2023-05-10T00:18:19;11.50;99.90
13598;DHT22;38563;54.258;12.574;2023-05-10T00:20:45;11.50;99.90
13598;DHT22;38563;54.258;12.574;2023-05-10T00:23:12;11.50;99.90
13598;DHT22;38563;54.258;12.574;2023-05-10T00:25:39;11.40;99.90
13598;DHT22;38563;54.258;12.574;2023-05-10T00:28:05;11.40;99.90
13598;DHT22;38563;54.258;12.574;2023-05-10T00:30:32;11.40;99.90
13598;DHT22;38563;54.258;12.574;2023-05-10T00:33:00;11.40;99.90
13598;DHT22;38563;54.258;12.574;2023-05-10T00:35:29;11.30;99.90
13598;DHT22;38563;54.258;12.574;2023-05-10T00:37:56;11.40;99.90
13598;DHT22;38563;54.258;12.574;2023-05-10T00:40:23;11.30;99.90
13598;DHT22;38563;54.258;12.574;2023-05-10T00:42:54;11.30;99.90
13598;DHT22;38563;54.258;12.574;2023-05-10T00:45:21;11.30;99.90
13598;DHT22;38563;54.258;12.574;2023-05-10T00:47:48;11.20;99.90
13598;DHT22;38563;54.258;12.574;2023-05-10T00:50:15;11.20;99.90
13598;DHT22;38563;54.258;12.574;2023-05-10T00:52:43;11.10;99.90
13598;DHT22;38563;54.258;12.574;2023-05-10T00:55:11;11.00;99.90
13598;DHT22;38563;54.258;12.574;2023-05-10T00:57:38;11.00;99.90
13598;DHT22;38563;54.258;12.574;2023-05-10T01:00:07;11.00;99.90
13598;DHT22;38563;54.258;12.574;2023-05-10T01:02:34;11.00;99.90
13598;DHT22;38563;54.258;12.574;2023-05-10T01:05:02;11.00;99.90
13598;DHT22;38563;54.258;12.574;2023-05-10T01:07:30;11.00;99.90
13598;DHT22;38563;54.258;12.574;2023-05-10T01:09:58;11.00;99.90
13598;DHT22;38563;54.258;12.574;2023-05-10T01:12:25;11.00;99.90
13598;DHT22;38563;54.258;12.574;2023-05-10T01:14:54;11.00;99.90
13598;DHT22;38563;54.258;12.574;2023-05-10T01:17:21;11.00;99.90
13598;DHT22;38563;54.258;12.574;2023-05-10T01:19:49;10.90;99.90
13598;DHT22;38563;54.258;12.574;2023-05-10T01:22:30;10.80;99.90
13598;DHT22;38563;54.258;12.574;2023-05-10T01:25:17;10.80;99.90
13598;DHT22;38563;54.258;12.574;2023-05-10T01:28:07;10.90;99.90
13598;DHT22;38563;54.258;12.574;2023-05-10T01:31:14;10.80;99.90
13598;DHT22;38563;54.258;12.574;2023-05-10T01:33:48;10.80;99.90
13598;DHT22;38563;54.258;12.574;2023-05-10T01:36:23;10.80;99.90
13598;DHT22;38563;54.258;12.574;2023-05-10T01:38:58;10.80;99.90
13598;DHT22;38563;54.258;12.574;2023-05-10T01:41:33;10.70;99.90
13598;DHT22;38563;54.258;12.574;2023-05-10T01:44:07;10.60;99.90
13598;DHT22;38563;54.258;12.574;2023-05-10T01:46:37;10.50;99.90
13598;DHT22;38563;54.258;12.574;2023-05-10T01:49:10;10.50;99.90
13598;DHT22;38563;54.258;12.574;2023-05-10T01:51:40;10.40;99.90
13598;DHT22;38563;54.258;12.574;2023-05-10T01:54:08;10.40;99.90
13598;DHT22;38563;54.258;12.574;2023-05-10T01:56:37;10.40;99.90
13598;DHT22;38563;54.258;12.574;2023-05-10T01:59:08;10.40;99.90
13598;DHT22;38563;54.258;12.574;2023-05-10T02:01:36;10.40;99.90
13598;DHT22;38563;54.258;12.574;2023-05-10T02:04:06;10.40;99.90
13598;DHT22;38563;54.258;12.574;2023-05-10T02:06:33;10.40;99.90
13598;DHT22;38563;54.258;12.574;2023-05-10T02:09:01;10.40;99.90
13598;DHT22;38563;54.258;12.574;2023-05-10T02:11:30;10.30;99.90
13598;DHT22;38563;54.258;12.574;2023-05-10T02:13:58;10.30;99.90
13598;DHT22;38563;54.258;12.574;2023-05-10T02:16:27;10.20;99.90
13598;DHT22;38563;54.258;12.574;2023-05-10T02:18:57;10.20;99.90
13598;DHT22;38563;54.258;12.574;2023-05-10T02:21:28;10.20;99.90
13598;DHT22;38563;54.258;12.574;2023-05-10T02:23:57;10.10;99.90
13598;DHT22;38563;54.258;12.574;2023-05-10T02:26:24;10.20;99.90
13598;DHT22;38563;54.258;12.574;2023-05-10T02:28:52;10.10;99.90
13598;DHT22;38563;54.258;12.574;2023-05-10T02:31:21;10.10;99.90
13598;DHT22;38563;54.258;12.574;2023-05-10T02:33:49;10.00;99.90
13598;DHT22;38563;54.258;12.574;2023-05-10T02:36:17;10.10;99.90
13598;DHT22;38563;54.258;12.574;2023-05-10T02:38:47;10.10;99.90
13598;DHT22;38563;54.258;12.574;2023-05-10T02:41:16;10.10;99.90
13598;DHT22;38563;54.258;12.574;2023-05-10T02:43:45;10.10;99.90
13598;DHT22;38563;54.258;12.574;2023-05-10T02:46:12;10.00;99.90
13598;DHT22;38563;54.258;12.574;2023-05-10T02:48:39;10.00;99.90
13598;DHT22;38563;54.258;12.574;2023-05-10T02:51:07;10.00;99.90
13598;DHT22;38563;54.258;12.574;2023-05-10T02:53:36;10.00;99.90
13598;DHT22;38563;54.258;12.574;2023-05-10T02:56:11;10.10;99.90
13598;DHT22;38563;54.258;12.574;2023-05-10T02:58:39;10.10;99.90
13598;DHT22;38563;54.258;12.574;2023-05-10T03:01:06;10.10;99.90
13598;DHT22;38563;54.258;12.574;2023-05-10T03:03:33;10.00;99.90
13598;DHT22;38563;54.258;12.574;2023-05-10T03:06:00;10.10;99.90
13598;DHT22;38563;54.258;12.574;2023-05-10T03:08:27;10.10;99.90
13598;DHT22;38563;54.258;12.574;2023-05-10T03:11:04;10.10;99.90
13598;DHT22;38563;54.258;12.574;2023-05-10T03:13:44;10.10;99.90
13598;DHT22;38563;54.258;12.574;2023-05-10T03:16:16;10.10;99.90
13598;DHT22;38563;54.258;12.574;2023-05-10T03:18:53;10.00;99.90
13598;DHT22;38563;54.258;12.574;2023-05-10T03:21:22;10.00;99.90
13598;DHT22;38563;54.258;12.574;2023-05-10T03:23:59;10.00;99.90
13598;DHT22;38563;54.258;12.574;2023-05-10T03:26:28;10.00;99.90
13598;DHT22;38563;54.258;12.574;2023-05-10T03:29:11;10.00;99.90
13598;DHT22;38563;54.258;12.574;2023-05-10T03:31:39;10.00;99.90
13598;DHT22;38563;54.258;12.574;2023-05-10T03:34:06;10.00;99.90
13598;DHT22;38563;54.258;12.574;2023-05-10T03:36:33;10.00;99.90
13598;DHT22;38563;54.258;12.574;2023-05-10T03:39:00;10.00;99.90
13598;DHT22;38563;54.258;12.574;2023-05-10T03:41:27;10.00;99.90
13598;DHT22;38563;54.258;12.574;2023-05-10T03:43:54;10.00;99.90
13598;DHT22;38563;54.258;12.574;2023-05-10T03:46:22;10.00;99.90
13598;DHT22;38563;54.258;12.574;2023-05-10T03:48:49;10.00;99.90
13598;DHT22;38563;54.258;12.574;2023-05-10T03:51:16;10.00;99.90
13598;DHT22;38563;54.258;12.574;2023-05-10T03:53:42;10.00;99.90
13598;DHT22;38563;54.258;12.574;2023-05-10T03:56:09;10.00;99.90
13598;DHT22;38563;54.258;12.574;2023-05-10T03:58:36;10.10;99.90
13598;DHT22;38563;54.258;12.574;2023-05-10T04:01:03;10.10;99.90
13598;DHT22;38563;54.258;12.574;2023-05-10T04:03:31;10.20;99.90
13598;DHT22;38563;54.258;12.574;2023-05-10T04:05:59;10.20;99.90
13598;DHT22;38563;54.258;12.574;2023-05-10T04:08:26;10.20;99.90
13598;DHT22;38563;54.258;12.574;2023-05-10T04:10:53;10.30;99.90
13598;DHT22;38563;54.258;12.574;2023-05-10T04:13:19;10.30;99.90
13598;DHT22;38563;54.258;12.574;2023-05-10T04:15:46;10.30;99.90
13598;DHT22;38563;54.258;12.574;2023-05-10T04:18:13;10.30;99.90
13598;DHT22;38563;54.258;12.574;2023-05-10T04:20:41;10.40;99.90
13598;DHT22;38563;54.258;12.574;2023-05-10T04:23:08;10.40;99.90
13598;DHT22;38563;54.258;12.574;2023-05-10T04:25:34;10.50;99.90
13598;DHT22;38563;54.258;12.574;2023-05-10T04:28:01;10.50;99.90
13598;DHT22;38563;54.258;12.574;2023-05-10T04:30:28;10.60;99.90
13598;DHT22;38563;54.258;12.574;2023-05-10T04:32:54;10.60;99.90
13598;DHT22;38563;54.258;12.574;2023-05-10T04:35:21;10.60;99.90
13598;DHT22;38563;54.258;12.574;2023-05-10T04:37:49;10.70;99.90
13598;DHT22;38563;54.258;12.574;2023-05-10T04:40:16;10.70;99.90
13598;DHT22;38563;54.258;12.574;2023-05-10T04:42:43;10.70;99.90
13598;DHT22;38563;54.258;12.574;2023-05-10T04:45:10;10.80;99.90
13598;DHT22;38563;54.258;12.574;2023-05-10T04:47:37;10.90;99.90
13598;DHT22;38563;54.258;12.574;2023-05-10T04:50:05;10.90;99.90
13598;DHT22;38563;54.258;12.574;2023-05-10T04:52:32;11.00;99.90
13598;DHT22;38563;54.258;12.574;2023-05-10T04:54:59;11.10;99.90
13598;DHT22;38563;54.258;12.574;2023-05-10T04:57:26;11.10;99.90
13598;DHT22;38563;54.258;12.574;2023-05-10T04:59:53;11.30;99.90
13598;DHT22;38563;54.258;12.574;2023-05-10T05:02:19;11.30;99.90
13598;DHT22;38563;54.258;12.574;2023-05-10T05:04:47;11.40;99.90
13598;DHT22;38563;54.258;12.574;2023-05-10T05:07:13;11.50;99.90
13598;DHT22;38563;54.258;12.574;2023-05-10T05:09:40;11.50;99.90
13598;DHT22;38563;54.258;12.574;2023-05-10T05:12:08;11.60;99.90
13598;DHT22;38563;54.258;12.574;2023-05-10T05:14:39;11.60;99.90
13598;DHT22;38563;54.258;12.574;2023-05-10T05:17:06;11.60;99.90
13598;DHT22;38563;54.258;12.574;2023-05-10T05:19:33;11.70;99.90
13598;DHT22;38563;54.258;12.574;2023-05-10T05:22:00;11.70;99.90
13598;DHT22;38563;54.258;12.574;2023-05-10T05:24:26;11.80;99.90
13598;DHT22;38563;54.258;12.574;2023-05-10T05:26:53;11.90;99.90
13598;DHT22;38563;54.258;12.574;2023-05-10T05:29:21;11.90;99.90
13598;DHT22;38563;54.258;12.574;2023-05-10T05:31:48;12.00;99.90
13598;DHT22;38563;54.258;12.574;2023-05-10T05:34:14;12.10;99.90
13598;DHT22;38563;54.258;12.574;2023-05-10T05:36:41;12.20;99.90
13598;DHT22;38563;54.258;12.574;2023-05-10T05:39:07;12.20;99.90
13598;DHT22;38563;54.258;12.574;2023-05-10T05:41:34;12.40;99.90
13598;DHT22;38563;54.258;12.574;2023-05-10T05:44:01;12.40;99.90
13598;DHT22;38563;54.258;12.574;2023-05-10T05:46:29;12.50;99.90
13598;DHT22;38563;54.258;12.574;2023-05-10T05:48:56;12.50;99.90
13598;DHT22;38563;54.258;12.574;2023-05-10T05:51:22;12.60;99.90
13598;DHT22;38563;54.258;12.574;2023-05-10T05:53:49;12.70;99.90
13598;DHT22;38563;54.258;12.574;2023-05-10T05:56:16;12.70;99.90
13598;DHT22;38563;54.258;12.574;2023-05-10T05:58:49;12.80;99.90
13598;DHT22;38563;54.258;12.574;2023-05-10T06:01:16;12.90;99.90
13598;DHT22;38563;54.258;12.574;2023-05-10T06:03:44;13.00;99.90
13598;DHT22;38563;54.258;12.574;2023-05-10T06:06:11;13.00;99.90
13598;DHT22;38563;54.258;12.574;2023-05-10T06:08:37;13.00;99.90
13598;DHT22;38563;54.258;12.574;2023-05-10T06:11:04;13.10;99.90
13598;DHT22;38563;54.258;12.574;2023-05-10T06:13:31;13.20;99.90
13598;DHT22;38563;54.258;12.574;2023-05-10T06:15:58;13.30;99.90
13598;DHT22;38563;54.258;12.574;2023-05-10T06:18:26;13.30;99.90
13598;DHT22;38563;54.258;12.574;2023-05-10T06:20:54;13.40;99.90
13598;DHT22;38563;54.258;12.574;2023-05-10T06:23:20;13.50;99.90
13598;DHT22;38563;54.258;12.574;2023-05-10T06:25:47;13.50;99.90
13598;DHT22;38563;54.258;12.574;2023-05-10T06:28:14;13.60;99.90
13598;DHT22;38563;54.258;12.574;2023-05-10T06:30:40;13.80;99.90
13598;DHT22;38563;54.258;12.574;2023-05-10T06:33:07;13.80;99.90
13598;DHT22;38563;54.258;12.574;2023-05-10T06:35:34;13.90;99.90
13598;DHT22;38563;54.258;12.574;2023-05-10T06:38:03;13.90;99.90
13598;DHT22;38563;54.258;12.574;2023-05-10T06:40:30;13.90;99.90
13598;DHT22;38563;54.258;12.574;2023-05-10T06:42:58;14.00;99.90
13598;DHT22;38563;54.258;12.574;2023-05-10T06:45:25;14.10;99.90
13598;DHT22;38563;54.258;12.574;2023-05-10T06:47:51;14.10;99.90
13598;DHT22;38563;54.258;12.574;2023-05-10T06:50:18;14.20;99.90
13598;DHT22;38563;54.258;12.574;2023-05-10T06:52:45;14.40;99.90
13598;DHT22;38563;54.258;12.574;2023-05-10T06:55:12;14.40;99.90
13598;DHT22;38563;54.258;12.574;2023-05-10T06:57:39;14.30;99.90
13598;DHT22;38563;54.258;12.574;2023-05-10T07:00:07;14.30;99.90
13598;DHT22;38563;54.258;12.574;2023-05-10T07:02:35;14.40;99.90
13598;DHT22;38563;54.258;12.574;2023-05-10T07:05:01;14.60;99.90
13598;DHT22;38563;54.258;12.574;2023-05-10T07:07:28;14.70;99.90
13598;DHT22;38563;54.258;12.574;2023-05-10T07:09:55;14.80;99.90
13598;DHT22;38563;54.258;12.574;2023-05-10T07:12:24;14.80;99.90
13598;DHT22;38563;54.258;12.574;2023-05-10T07:14:51;14.90;99.90
13598;DHT22;38563;54.258;12.574;2023-05-10T07:17:17;15.00;99.90
13598;DHT22;38563;54.258;12.574;2023-05-10T07:19:44;15.20;99.90
13598;DHT22;38563;54.258;12.574;2023-05-10T07:22:11;15.20;99.90
13598;DHT22;38563;54.258;12.574;2023-05-10T07:24:38;15.10;99.90
13598;DHT22;38563;54.258;12.574;2023-05-10T07:27:05;15.10;99.90
13598;DHT22;38563;54.258;12.574;2023-05-10T07:29:33;15.20;99.90
13598;DHT22;38563;54.258;12.574;2023-05-10T07:31:59;15.30;99.90
13598;DHT22;38563;54.258;12.574;2023-05-10T07:34:26;15.30;99.90
13598;DHT22;38563;54.258;12.574;2023-05-10T07:36:53;15.30;99.90
13598;DHT22;38563;54.258;12.574;2023-05-10T07:39:20;15.40;99.90
13598;DHT22;38563;54.258;12.574;2023-05-10T07:41:47;15.50;99.90
13598;DHT22;38563;54.258;12.574;2023-05-10T07:44:14;15.60;99.90
13598;DHT22;38563;54.258;12.574;2023-05-10T07:46:41;15.60;99.90
13598;DHT22;38563;54.258;12.574;2023-05-10T07:49:08;15.60;99.90
13598;DHT22;38563;54.258;12.574;2023-05-10T07:51:35;15.70;99.90
13598;DHT22;38563;54.258;12.574;2023-05-10T07:54:02;15.70;99.90
13598;DHT22;38563;54.258;12.574;2023-05-10T07:56:30;15.70;99.90
13598;DHT22;38563;54.258;12.574;2023-05-10T07:58:58;15.80;99.90
13598;DHT22;38563;54.258;12.574;2023-05-10T08:01:26;16.00;99.90
13598;DHT22;38563;54.258;12.574;2023-05-10T08:03:54;16.00;99.90
13598;DHT22;38563;54.258;12.574;2023-05-10T08:06:21;16.10;99.90
13598;DHT22;38563;54.258;12.574;2023-05-10T08:08:48;16.30;99.90
13598;DHT22;38563;54.258;12.574;2023-05-10T08:11:16;16.30;99.90
13598;DHT22;38563;54.258;12.574;2023-05-10T08:13:43;16.30;99.90
13598;DHT22;38563;54.258;12.574;2023-05-10T08:16:09;16.40;99.90
13598;DHT22;38563;54.258;12.574;2023-05-10T08:18:36;16.60;99.90
13598;DHT22;38563;54.258;12.574;2023-05-10T08:21:04;16.60;99.90
13598;DHT22;38563;54.258;12.574;2023-05-10T08:23:31;16.70;99.90
13598;DHT22;38563;54.258;12.574;2023-05-10T08:25:59;17.10;99.90
13598;DHT22;38563;54.258;12.574;2023-05-10T08:28:25;17.80;99.90
13598;DHT22;38563;54.258;12.574;2023-05-10T08:30:52;18.50;99.90
13598;DHT22;38563;54.258;12.574;2023-05-10T08:33:19;18.60;99.90
13598;DHT22;38563;54.258;12.574;2023-05-10T08:35:46;18.60;99.90
13598;DHT22;38563;54.258;12.574;2023-05-10T08:38:14;19.00;99.90
13598;DHT22;38563;54.258;12.574;2023-05-10T08:40:42;19.20;99.90
13598;DHT22;38563;54.258;12.574;2023-05-10T08:43:10;18.90;99.90
13598;DHT22;38563;54.258;12.574;2023-05-10T08:45:39;18.80;99.90
13598;DHT22;38563;54.258;12.574;2023-05-10T08:48:08;19.00;99.90
13598;DHT22;38563;54.258;12.574;2023-05-10T08:50:36;19.10;99.90
13598;DHT22;38563;54.258;12.574;2023-05-10T08:53:05;19.00;99.90
13598;DHT22;38563;54.258;12.574;2023-05-10T08:55:33;18.80;99.90
13598;DHT22;38563;54.258;12.574;2023-05-10T08:58:02;18.80;99.90
13598;DHT22;38563;54.258;12.574;2023-05-10T09:00:29;18.80;99.90
13598;DHT22;38563;54.258;12.574;2023-05-10T09:02:57;19.00;99.90
13598;DHT22;38563;54.258;12.574;2023-05-10T09:05:24;18.90;99.90
13598;DHT22;38563;54.258;12.574;2023-05-10T09:07:51;18.80;99.90
13598;DHT22;38563;54.258;12.574;2023-05-10T09:10:18;18.90;99.90
13598;DHT22;38563;54.258;12.574;2023-05-10T09:12:48;19.00;99.90
13598;DHT22;38563;54.258;12.574;2023-05-10T09:15:15;19.00;99.90
13598;DHT22;38563;54.258;12.574;2023-05-10T09:17:44;19.00;99.90
13598;DHT22;38563;54.258;12.574;2023-05-10T09:20:11;19.00;99.90
13598;DHT22;38563;54.258;12.574;2023-05-10T09:22:38;19.10;99.90
13598;DHT22;38563;54.258;12.574;2023-05-10T09:25:06;19.50;99.90
13598;DHT22;38563;54.258;12.574;2023-05-10T09:27:33;19.30;99.90
13598;DHT22;38563;54.258;12.574;2023-05-10T09:30:02;19.20;99.90
13598;DHT22;38563;54.258;12.574;2023-05-10T09:32:39;19.20;99.90
13598;DHT22;38563;54.258;12.574;2023-05-10T09:35:07;19.30;99.90
13598;DHT22;38563;54.258;12.574;2023-05-10T09:37:33;19.60;99.90
13598;DHT22;38563;54.258;12.574;2023-05-10T09:40:00;19.60;99.90
13598;DHT22;38563;54.258;12.574;2023-05-10T09:42:30;19.40;99.90
13598;DHT22;38563;54.258;12.574;2023-05-10T09:45:02;19.30;99.90
13598;DHT22;38563;54.258;12.574;2023-05-10T09:47:31;19.40;99.90
13598;DHT22;38563;54.258;12.574;2023-05-10T09:49:58;19.30;99.90
13598;DHT22;38563;54.258;12.574;2023-05-10T09:52:28;19.00;99.90
13598;DHT22;38563;54.258;12.574;2023-05-10T09:54:55;19.20;99.90
13598;DHT22;38563;54.258;12.574;2023-05-10T09:57:23;19.50;99.90
13598;DHT22;38563;54.258;12.574;2023-05-10T09:59:50;19.60;99.90
13598;DHT22;38563;54.258;12.574;2023-05-10T10:02:21;19.60;99.90
13598;DHT22;38563;54.258;12.574;2023-05-10T10:04:49;19.70;99.90
13598;DHT22;38563;54.258;12.574;2023-05-10T10:07:22;19.80;99.90
13598;DHT22;38563;54.258;12.574;2023-05-10T10:09:50;19.80;99.90
13598;DHT22;38563;54.258;12.574;2023-05-10T10:12:17;19.90;99.90
13598;DHT22;38563;54.258;12.574;2023-05-10T10:14:46;20.10;99.90
13598;DHT22;38563;54.258;12.574;2023-05-10T10:17:12;20.10;99.90
13598;DHT22;38563;54.258;12.574;2023-05-10T10:19:41;20.20;99.90
13598;DHT22;38563;54.258;12.574;2023-05-10T10:22:08;20.20;99.90
13598;DHT22;38563;54.258;12.574;2023-05-10T10:24:37;20.20;99.90
13598;DHT22;38563;54.258;12.574;2023-05-10T10:27:14;20.30;99.90
13598;DHT22;38563;54.258;12.574;2023-05-10T10:29:50;20.20;99.90
13598;DHT22;38563;54.258;12.574;2023-05-10T10:32:30;20.20;99.90
13598;DHT22;38563;54.258;12.574;2023-05-10T10:35:01;20.30;99.90
13598;DHT22;38563;54.258;12.574;2023-05-10T10:37:43;20.50;99.90
13598;DHT22;38563;54.258;12.574;2023-05-10T10:40:27;20.50;99.90
13598;DHT22;38563;54.258;12.574;2023-05-10T10:42:54;20.60;99.90
13598;DHT22;38563;54.258;12.574;2023-05-10T10:45:23;20.50;99.90
13598;DHT22;38563;54.258;12.574;2023-05-10T10:50:44;20.70;99.90
13598;DHT22;38563;54.258;12.574;2023-05-10T10:53:12;20.80;99.90
13598;DHT22;38563;54.258;12.574;2023-05-10T10:55:46;20.80;99.90
13598;DHT22;38563;54.258;12.574;2023-05-10T10:58:29;20.90;99.90
13598;DHT22;38563;54.258;12.574;2023-05-10T11:01:10;20.90;99.90
13598;DHT22;38563;54.258;12.574;2023-05-10T11:03:37;20.80;99.90
13598;DHT22;38563;54.258;12.574;2023-05-10T11:06:06;20.80;99.90
13598;DHT22;38563;54.258;12.574;2023-05-10T11:08:35;20.80;99.90
13598;DHT22;38563;54.258;12.574;2023-05-10T11:11:07;20.80;99.90
13598;DHT22;38563;54.258;12.574;2023-05-10T11:13:38;20.60;99.90
13598;DHT22;38563;54.258;12.574;2023-05-10T11:16:18;20.80;99.90
13598;DHT22;38563;54.258;12.574;2023-05-10T11:18:59;20.80;99.90
13598;DHT22;38563;54.258;12.574;2023-05-10T11:21:28;20.80;99.90
13598;DHT22;38563;54.258;12.574;2023-05-10T11:23:57;21.20;99.90
13598;DHT22;38563;54.258;12.574;2023-05-10T11:26:25;21.30;99.90
13598;DHT22;38563;54.258;12.574;2023-05-10T11:28:53;21.20;99.90
13598;DHT22;38563;54.258;12.574;2023-05-10T11:31:22;21.30;99.90
13598;DHT22;38563;54.258;12.574;2023-05-10T11:33:51;21.40;99.90
13598;DHT22;38563;54.258;12.574;2023-05-10T11:36:19;21.60;99.90
13598;DHT22;38563;54.258;12.574;2023-05-10T11:38:47;21.50;99.90
13598;DHT22;38563;54.258;12.574;2023-05-10T11:41:16;21.40;99.90
13598;DHT22;38563;54.258;12.574;2023-05-10T11:43:46;21.40;99.90
13598;DHT22;38563;54.258;12.574;2023-05-10T11:46:14;21.40;99.90
13598;DHT22;38563;54.258;12.574;2023-05-10T11:48:42;21.50;99.90
13598;DHT22;38563;54.258;12.574;2023-05-10T11:51:10;21.50;99.90
13598;DHT22;38563;54.258;12.574;2023-05-10T11:53:37;21.50;99.90
13598;DHT22;38563;54.258;12.574;2023-05-10T11:56:12;21.70;99.90
13598;DHT22;38563;54.258;12.574;2023-05-10T11:58:39;21.70;99.90
13598;DHT22;38563;54.258;12.574;2023-05-10T12:01:07;21.80;99.90
13598;DHT22;38563;54.258;12.574;2023-05-10T12:03:36;21.80;99.90
13598;DHT22;38563;54.258;12.574;2023-05-10T12:06:03;21.70;99.90
13598;DHT22;38563;54.258;12.574;2023-05-10T12:08:30;21.80;99.90
13598;DHT22;38563;54.258;12.574;2023-05-10T12:11:05;22.00;99.90
13598;DHT22;38563;54.258;12.574;2023-05-10T12:13:37;21.80;99.90
13598;DHT22;38563;54.258;12.574;2023-05-10T12:16:12;22.00;99.90
13598;DHT22;38563;54.258;12.574;2023-05-10T12:18:39;22.00;99.90
13598;DHT22;38563;54.258;12.574;2023-05-10T12:21:06;22.00;99.90
13598;DHT22;38563;54.258;12.574;2023-05-10T12:23:33;22.00;99.90
13598;DHT22;38563;54.258;12.574;2023-05-10T12:26:02;21.90;99.90
13598;DHT22;38563;54.258;12.574;2023-05-10T12:28:30;22.10;99.90
13598;DHT22;38563;54.258;12.574;2023-05-10T12:30:59;22.30;99.90
13598;DHT22;38563;54.258;12.574;2023-05-10T12:33:26;22.40;99.90
13598;DHT22;38563;54.258;12.574;2023-05-10T12:35:54;22.40;99.90
13598;DHT22;38563;54.258;12.574;2023-05-10T12:38:25;22.60;99.90
13598;DHT22;38563;54.258;12.574;2023-05-10T12:40:52;22.50;99.90
13598;DHT22;38563;54.258;12.574;2023-05-10T12:43:19;22.60;99.90
13598;DHT22;38563;54.258;12.574;2023-05-10T12:45:45;22.60;99.90
13598;DHT22;38563;54.258;12.574;2023-05-10T12:48:15;22.60;99.90
13598;DHT22;38563;54.258;12.574;2023-05-10T12:50:42;22.60;99.90
13598;DHT22;38563;54.258;12.574;2023-05-10T12:53:08;22.90;99.90
13598;DHT22;38563;54.258;12.574;2023-05-10T12:55:35;23.20;99.90
13598;DHT22;38563;54.258;12.574;2023-05-10T12:58:02;23.30;99.90
13598;DHT22;38563;54.258;12.574;2023-05-10T13:00:28;23.20;99.90
13598;DHT22;38563;54.258;12.574;2023-05-10T13:02:55;23.00;99.90
13598;DHT22;38563;54.258;12.574;2023-05-10T13:05:23;22.90;99.90
13598;DHT22;38563;54.258;12.574;2023-05-10T13:07:50;22.90;99.90
13598;DHT22;38563;54.258;12.574;2023-05-10T13:10:16;23.10;99.90
13598;DHT22;38563;54.258;12.574;2023-05-10T13:12:43;23.20;99.90
13598;DHT22;38563;54.258;12.574;2023-05-10T13:15:10;23.30;99.90
13598;DHT22;38563;54.258;12.574;2023-05-10T13:17:36;23.20;99.90
13598;DHT22;38563;54.258;12.574;2023-05-10T13:20:05;23.30;99.90
13598;DHT22;38563;54.258;12.574;2023-05-10T13:22:33;23.40;99.90
13598;DHT22;38563;54.258;12.574;2023-05-10T13:25:00;23.60;99.90
13598;DHT22;38563;54.258;12.574;2023-05-10T13:27:26;23.60;99.90
13598;DHT22;38563;54.258;12.574;2023-05-10T13:29:53;23.60;99.90
13598;DHT22;38563;54.258;12.574;2023-05-10T13:32:20;23.60;99.90
13598;DHT22;38563;54.258;12.574;2023-05-10T13:34:47;23.60;99.90
13598;DHT22;38563;54.258;12.574;2023-05-10T13:37:13;23.90;99.90
13598;DHT22;38563;54.258;12.574;2023-05-10T13:39:41;23.80;99.90
13598;DHT22;38563;54.258;12.574;2023-05-10T13:42:08;23.70;99.90
13598;DHT22;38563;54.258;12.574;2023-05-10T13:44:34;23.90;99.90
13598;DHT22;38563;54.258;12.574;2023-05-10T13:47:01;23.90;99.90
13598;DHT22;38563;54.258;12.574;2023-05-10T13:49:28;24.00;99.90
13598;DHT22;38563;54.258;12.574;2023-05-10T13:51:54;23.90;99.90
13598;DHT22;38563;54.258;12.574;2023-05-10T13:54:21;23.90;99.90
13598;DHT22;38563;54.258;12.574;2023-05-10T13:56:49;23.80;99.90
13598;DHT22;38563;54.258;12.574;2023-05-10T13:59:16;23.90;99.90
13598;DHT22;38563;54.258;12.574;2023-05-10T14:01:43;24.10;99.90
13598;DHT22;38563;54.258;12.574;2023-05-10T14:04:09;24.20;99.90
13598;DHT22;38563;54.258;12.574;2023-05-10T14:06:36;24.10;99.90
13598;DHT22;38563;54.258;12.574;2023-05-10T14:09:03;24.20;99.90
13598;DHT22;38563;54.258;12.574;2023-05-10T14:11:30;24.60;99.90
13598;DHT22;38563;54.258;12.574;2023-05-10T14:13:58;24.50;99.90
13598;DHT22;38563;54.258;12.574;2023-05-10T14:16:24;24.60;99.90
13598;DHT22;38563;54.258;12.574;2023-05-10T14:18:51;24.60;99.90
13598;DHT22;38563;54.258;12.574;2023-05-10T14:21:18;24.60;99.90
13598;DHT22;38563;54.258;12.574;2023-05-10T14:23:45;24.80;99.90
13598;DHT22;38563;54.258;12.574;2023-05-10T14:26:12;24.80;99.90
13598;DHT22;38563;54.258;12.574;2023-05-10T14:28:38;24.90;99.90
13598;DHT22;38563;54.258;12.574;2023-05-10T14:31:06;24.90;99.90
13598;DHT22;38563;54.258;12.574;2023-05-10T14:33:33;25.00;99.90
13598;DHT22;38563;54.258;12.574;2023-05-10T14:35:59;24.80;99.90
13598;DHT22;38563;54.258;12.574;2023-05-10T14:38:28;24.70;99.90
13598;DHT22;38563;54.258;12.574;2023-05-10T14:40:55;24.60;99.90
13598;DHT22;38563;54.258;12.574;2023-05-10T14:43:21;24.50;99.90
13598;DHT22;38563;54.258;12.574;2023-05-10T14:45:48;24.40;99.90
13598;DHT22;38563;54.258;12.574;2023-05-10T14:48:16;24.40;99.90
13598;DHT22;38563;54.258;12.574;2023-05-10T14:50:43;24.40;99.90
13598;DHT22;38563;54.258;12.574;2023-05-10T14:53:09;24.40;99.90
13598;DHT22;38563;54.258;12.574;2023-05-10T14:55:36;24.60;99.90
13598;DHT22;38563;54.258;12.574;2023-05-10T14:58:03;24.70;99.90
13598;DHT22;38563;54.258;12.574;2023-05-10T15:00:30;24.80;99.90
13598;DHT22;38563;54.258;12.574;2023-05-10T15:02:57;24.80;99.90
13598;DHT22;38563;54.258;12.574;2023-05-10T15:05:25;24.90;99.90
13598;DHT22;38563;54.258;12.574;2023-05-10T15:07:52;24.60;99.90
13598;DHT22;38563;54.258;12.574;2023-05-10T15:10:18;24.50;99.90
13598;DHT22;38563;54.258;12.574;2023-05-10T15:12:45;24.60;99.90
13598;DHT22;38563;54.258;12.574;2023-05-10T15:15:12;24.60;99.90
13598;DHT22;38563;54.258;12.574;2023-05-10T15:17:38;24.60;99.90
13598;DHT22;38563;54.258;12.574;2023-05-10T15:20:06;24.70;99.90
13598;DHT22;38563;54.258;12.574;2023-05-10T15:22:35;24.50;99.90
13598;DHT22;38563;54.258;12.574;2023-05-10T15:25:02;24.50;99.90